sensor_id;sensor_type;location;lat;lon;timestamp;P1;durP1;ratioP1;P2;durP2;ratioP2
43042;SDS011;28667;50.758;6.096;2023-04-25T00:02:09;3.22;;;1.73;;
43042;SDS011;28667;50.758;6.096;2023-04-25T00:04:56;11.02;;;2.20;;
43042;SDS011;28667;50.758;6.096;2023-04-25T00:07:34;5.32;;;2.00;;
43042;SDS011;28667;50.758;6.096;2023-04-25T00:10:04;7.85;;;1.48;;
43042;SDS011;28667;50.758;6.096;2023-04-25T00:12:36;6.50;;;2.17;;
43042;SDS011;28667;50.758;6.096;2023-04-25T00:15:09;4.47;;;2.10;;
43042;SDS011;28667;50.758;6.096;2023-04-25T00:17:38;6.18;;;1.48;;
43042;SDS011;28667;50.758;6.096;2023-04-25T00:20:07;8.95;;;1.90;;
43042;SDS011;28667;50.758;6.096;2023-04-25T00:22:36;3.40;;;1.88;;
43042;SDS011;28667;50.758;6.096;2023-04-25T00:25:08;4.43;;;2.05;;
43042;SDS011;28667;50.758;6.096;2023-04-25T00:27:38;4.38;;;1.42;;
43042;SDS011;28667;50.758;6.096;2023-04-25T00:30:11;4.82;;;1.92;;
43042;SDS011;28667;50.758;6.096;2023-04-25T00:32:48;8.32;;;2.25;;
43042;SDS011;28667;50.758;6.096;2023-04-25T00:35:23;3.88;;;1.80;;
43042;SDS011;28667;50.758;6.096;2023-04-25T00:37:49;8.73;;;2.40;;
43042;SDS011;28667;50.758;6.096;2023-04-25T00:40:23;4.07;;;1.77;;
43042;SDS011;28667;50.758;6.096;2023-04-25T00:43:14;5.63;;;1.83;;
43042;SDS011;28667;50.758;6.096;2023-04-25T00:45:43;4.43;;;2.13;;
43042;SDS011;28667;50.758;6.096;2023-04-25T00:48:15;4.10;;;1.83;;
43042;SDS011;28667;50.758;6.096;2023-04-25T00:50:58;3.72;;;1.42;;
43042;SDS011;28667;50.758;6.096;2023-04-25T00:53:38;4.93;;;2.08;;
43042;SDS011;28667;50.758;6.096;2023-04-25T00:56:19;6.88;;;1.98;;
43042;SDS011;28667;50.758;6.096;2023-04-25T00:58:50;5.43;;;1.77;;
43042;SDS011;28667;50.758;6.096;2023-04-25T01:01:24;2.60;;;2.05;;
43042;SDS011;28667;50.758;6.096;2023-04-25T01:03:54;2.67;;;1.90;;
43042;SDS011;28667;50.758;6.096;2023-04-25T01:06:21;3.80;;;2.08;;
43042;SDS011;28667;50.758;6.096;2023-04-25T01:09:06;5.18;;;2.00;;
43042;SDS011;28667;50.758;6.096;2023-04-25T01:11:35;3.60;;;2.00;;
43042;SDS011;28667;50.758;6.096;2023-04-25T01:14:08;6.88;;;1.90;;
43042;SDS011;28667;50.758;6.096;2023-04-25T01:16:37;5.55;;;2.17;;
43042;SDS011;28667;50.758;6.096;2023-04-25T01:19:06;2.40;;;1.95;;
43042;SDS011;28667;50.758;6.096;2023-04-25T01:21:47;5.28;;;2.13;;
43042;SDS011;28667;50.758;6.096;2023-04-25T01:24:16;9.77;;;2.33;;
43042;SDS011;28667;50.758;6.096;2023-04-25T01:26:45;3.17;;;2.05;;
43042;SDS011;28667;50.758;6.096;2023-04-25T01:29:21;9.80;;;2.97;;
43042;SDS011;28667;50.758;6.096;2023-04-25T01:31:51;6.38;;;2.20;;
43042;SDS011;28667;50.758;6.096;2023-04-25T01:34:28;5.57;;;1.75;;
43042;SDS011;28667;50.758;6.096;2023-04-25T01:36:56;5.63;;;2.33;;
43042;SDS011;28667;50.758;6.096;2023-04-25T01:39:33;8.13;;;2.40;;
43042;SDS011;28667;50.758;6.096;2023-04-25T01:42:02;5.35;;;2.03;;
43042;SDS011;28667;50.758;6.096;2023-04-25T01:44:32;7.53;;;1.92;;
43042;SDS011;28667;50.758;6.096;2023-04-25T01:47:03;6.35;;;1.80;;
43042;SDS011;28667;50.758;6.096;2023-04-25T01:49:32;11.60;;;2.13;;
43042;SDS011;28667;50.758;6.096;2023-04-25T01:52:00;6.40;;;2.10;;
43042;SDS011;28667;50.758;6.096;2023-04-25T01:54:28;6.72;;;2.50;;
43042;SDS011;28667;50.758;6.096;2023-04-25T01:57:39;6.85;;;2.08;;
43042;SDS011;28667;50.758;6.096;2023-04-25T02:00:13;8.52;;;1.88;;
43042;SDS011;28667;50.758;6.096;2023-04-25T02:02:42;9.60;;;2.25;;
43042;SDS011;28667;50.758;6.096;2023-04-25T02:05:24;9.70;;;2.50;;
43042;SDS011;28667;50.758;6.096;2023-04-25T02:07:57;10.45;;;2.28;;
43042;SDS011;28667;50.758;6.096;2023-04-25T02:10:29;5.13;;;2.50;;
43042;SDS011;28667;50.758;6.096;2023-04-25T02:13:20;4.75;;;2.17;;
43042;SDS011;28667;50.758;6.096;2023-04-25T02:16:31;9.00;;;1.88;;
43042;SDS011;28667;50.758;6.096;2023-04-25T02:19:06;6.93;;;1.80;;
43042;SDS011;28667;50.758;6.096;2023-04-25T02:21:35;4.95;;;2.28;;
43042;SDS011;28667;50.758;6.096;2023-04-25T02:24:04;7.07;;;2.13;;
43042;SDS011;28667;50.758;6.096;2023-04-25T02:26:35;10.73;;;2.33;;
43042;SDS011;28667;50.758;6.096;2023-04-25T02:29:08;3.78;;;2.33;;
43042;SDS011;28667;50.758;6.096;2023-04-25T02:31:34;3.60;;;2.05;;
43042;SDS011;28667;50.758;6.096;2023-04-25T02:34:00;3.25;;;2.22;;
43042;SDS011;28667;50.758;6.096;2023-04-25T02:36:26;4.55;;;2.25;;
43042;SDS011;28667;50.758;6.096;2023-04-25T02:38:52;10.80;;;2.38;;
43042;SDS011;28667;50.758;6.096;2023-04-25T02:41:19;9.25;;;2.17;;
43042;SDS011;28667;50.758;6.096;2023-04-25T02:43:46;7.50;;;2.78;;
43042;SDS011;28667;50.758;6.096;2023-04-25T02:46:12;9.57;;;2.85;;
43042;SDS011;28667;50.758;6.096;2023-04-25T02:48:38;9.43;;;1.88;;
43042;SDS011;28667;50.758;6.096;2023-04-25T02:51:08;6.30;;;2.08;;
43042;SDS011;28667;50.758;6.096;2023-04-25T02:53:34;7.70;;;2.53;;
43042;SDS011;28667;50.758;6.096;2023-04-25T02:56:00;6.95;;;2.30;;
43042;SDS011;28667;50.758;6.096;2023-04-25T02:58:26;5.28;;;2.13;;
43042;SDS011;28667;50.758;6.096;2023-04-25T03:00:53;11.35;;;2.00;;
43042;SDS011;28667;50.758;6.096;2023-04-25T03:03:19;3.90;;;1.88;;
43042;SDS011;28667;50.758;6.096;2023-04-25T03:05:50;6.20;;;2.60;;
43042;SDS011;28667;50.758;6.096;2023-04-25T03:08:21;6.72;;;2.70;;
43042;SDS011;28667;50.758;6.096;2023-04-25T03:10:47;4.20;;;2.28;;
43042;SDS011;28667;50.758;6.096;2023-04-25T03:13:15;6.03;;;2.55;;
43042;SDS011;28667;50.758;6.096;2023-04-25T03:15:42;8.88;;;2.13;;
43042;SDS011;28667;50.758;6.096;2023-04-25T03:18:08;5.93;;;2.08;;
43042;SDS011;28667;50.758;6.096;2023-04-25T03:20:34;7.90;;;2.67;;
43042;SDS011;28667;50.758;6.096;2023-04-25T03:23:00;8.40;;;2.53;;
43042;SDS011;28667;50.758;6.096;2023-04-25T03:25:27;7.55;;;2.85;;
43042;SDS011;28667;50.758;6.096;2023-04-25T03:27:53;8.38;;;3.00;;
43042;SDS011;28667;50.758;6.096;2023-04-25T03:30:19;12.18;;;3.22;;
43042;SDS011;28667;50.758;6.096;2023-04-25T03:32:45;9.40;;;2.65;;
43042;SDS011;28667;50.758;6.096;2023-04-25T03:35:14;16.05;;;3.03;;
43042;SDS011;28667;50.758;6.096;2023-04-25T03:37:40;4.50;;;1.98;;
43042;SDS011;28667;50.758;6.096;2023-04-25T03:40:10;7.55;;;2.25;;
43042;SDS011;28667;50.758;6.096;2023-04-25T03:43:05;8.20;;;2.63;;
43042;SDS011;28667;50.758;6.096;2023-04-25T03:45:32;6.65;;;2.33;;
43042;SDS011;28667;50.758;6.096;2023-04-25T03:47:58;11.85;;;1.92;;
43042;SDS011;28667;50.758;6.096;2023-04-25T03:50:26;5.38;;;2.17;;
43042;SDS011;28667;50.758;6.096;2023-04-25T03:52:52;6.53;;;2.50;;
43042;SDS011;28667;50.758;6.096;2023-04-25T03:55:18;5.95;;;2.10;;
43042;SDS011;28667;50.758;6.096;2023-04-25T03:57:43;3.30;;;1.70;;
43042;SDS011;28667;50.758;6.096;2023-04-25T04:00:09;5.32;;;1.90;;
43042;SDS011;28667;50.758;6.096;2023-04-25T04:02:38;4.57;;;2.20;;
43042;SDS011;28667;50.758;6.096;2023-04-25T04:05:05;7.38;;;2.17;;
43042;SDS011;28667;50.758;6.096;2023-04-25T04:07:33;3.47;;;1.88;;
43042;SDS011;28667;50.758;6.096;2023-04-25T04:10:06;8.30;;;1.92;;
43042;SDS011;28667;50.758;6.096;2023-04-25T04:12:35;1.70;;;1.45;;
43042;SDS011;28667;50.758;6.096;2023-04-25T04:15:02;10.15;;;2.00;;
43042;SDS011;28667;50.758;6.096;2023-04-25T04:17:29;10.82;;;2.30;;
43042;SDS011;28667;50.758;6.096;2023-04-25T04:19:56;6.00;;;1.70;;
43042;SDS011;28667;50.758;6.096;2023-04-25T04:22:22;7.60;;;2.05;;
43042;SDS011;28667;50.758;6.096;2023-04-25T04:24:50;5.90;;;2.25;;
43042;SDS011;28667;50.758;6.096;2023-04-25T04:27:48;5.50;;;1.83;;
43042;SDS011;28667;50.758;6.096;2023-04-25T04:30:43;2.33;;;1.42;;
43042;SDS011;28667;50.758;6.096;2023-04-25T04:33:11;2.03;;;1.55;;
43042;SDS011;28667;50.758;6.096;2023-04-25T04:35:38;5.57;;;1.42;;
43042;SDS011;28667;50.758;6.096;2023-04-25T04:38:05;4.97;;;1.55;;
43042;SDS011;28667;50.758;6.096;2023-04-25T04:40:33;11.38;;;1.95;;
43042;SDS011;28667;50.758;6.096;2023-04-25T04:43:13;3.15;;;1.73;;
43042;SDS011;28667;50.758;6.096;2023-04-25T04:46:02;4.07;;;1.50;;
43042;SDS011;28667;50.758;6.096;2023-04-25T04:48:52;17.55;;;2.65;;
43042;SDS011;28667;50.758;6.096;2023-04-25T04:51:37;7.65;;;1.90;;
43042;SDS011;28667;50.758;6.096;2023-04-25T04:54:21;9.02;;;2.05;;
43042;SDS011;28667;50.758;6.096;2023-04-25T04:57:07;12.43;;;2.78;;
43042;SDS011;28667;50.758;6.096;2023-04-25T04:59:51;9.65;;;1.95;;
43042;SDS011;28667;50.758;6.096;2023-04-25T05:02:46;12.00;;;2.05;;
43042;SDS011;28667;50.758;6.096;2023-04-25T05:05:30;7.53;;;2.03;;
43042;SDS011;28667;50.758;6.096;2023-04-25T05:08:16;5.82;;;1.70;;
43042;SDS011;28667;50.758;6.096;2023-04-25T05:11:01;6.10;;;1.55;;
43042;SDS011;28667;50.758;6.096;2023-04-25T05:13:51;6.63;;;2.25;;
43042;SDS011;28667;50.758;6.096;2023-04-25T05:16:44;7.80;;;1.83;;
43042;SDS011;28667;50.758;6.096;2023-04-25T05:22:11;6.75;;;1.83;;
43042;SDS011;28667;50.758;6.096;2023-04-25T05:24:49;11.05;;;2.05;;
43042;SDS011;28667;50.758;6.096;2023-04-25T05:27:34;3.88;;;1.67;;
43042;SDS011;28667;50.758;6.096;2023-04-25T05:30:23;12.23;;;2.42;;
43042;SDS011;28667;50.758;6.096;2023-04-25T05:33:01;4.30;;;1.90;;
43042;SDS011;28667;50.758;6.096;2023-04-25T05:35:27;5.70;;;2.08;;
43042;SDS011;28667;50.758;6.096;2023-04-25T05:37:52;7.57;;;2.50;;
43042;SDS011;28667;50.758;6.096;2023-04-25T05:40:24;8.80;;;2.13;;
43042;SDS011;28667;50.758;6.096;2023-04-25T05:43:10;5.82;;;2.70;;
43042;SDS011;28667;50.758;6.096;2023-04-25T05:46:02;9.40;;;1.88;;
43042;SDS011;28667;50.758;6.096;2023-04-25T05:48:43;6.25;;;1.65;;
43042;SDS011;28667;50.758;6.096;2023-04-25T05:51:30;5.70;;;2.15;;
43042;SDS011;28667;50.758;6.096;2023-04-25T05:54:16;8.32;;;2.13;;
43042;SDS011;28667;50.758;6.096;2023-04-25T05:56:42;4.70;;;1.55;;
43042;SDS011;28667;50.758;6.096;2023-04-25T05:59:08;10.00;;;1.80;;
43042;SDS011;28667;50.758;6.096;2023-04-25T06:01:34;10.70;;;1.98;;
43042;SDS011;28667;50.758;6.096;2023-04-25T06:04:01;11.25;;;1.88;;
43042;SDS011;28667;50.758;6.096;2023-04-25T06:06:26;7.35;;;2.28;;
43042;SDS011;28667;50.758;6.096;2023-04-25T06:08:52;7.25;;;2.17;;
43042;SDS011;28667;50.758;6.096;2023-04-25T06:11:18;5.72;;;1.67;;
43042;SDS011;28667;50.758;6.096;2023-04-25T06:13:45;11.52;;;1.88;;
43042;SDS011;28667;50.758;6.096;2023-04-25T06:16:11;5.63;;;1.40;;
43042;SDS011;28667;50.758;6.096;2023-04-25T06:18:38;8.52;;;1.90;;
43042;SDS011;28667;50.758;6.096;2023-04-25T06:21:03;6.60;;;2.05;;
43042;SDS011;28667;50.758;6.096;2023-04-25T06:23:32;8.07;;;2.50;;
43042;SDS011;28667;50.758;6.096;2023-04-25T06:26:06;4.57;;;1.67;;
43042;SDS011;28667;50.758;6.096;2023-04-25T06:28:35;6.85;;;2.28;;
43042;SDS011;28667;50.758;6.096;2023-04-25T06:31:01;10.05;;;2.45;;
43042;SDS011;28667;50.758;6.096;2023-04-25T06:33:27;7.40;;;2.10;;
43042;SDS011;28667;50.758;6.096;2023-04-25T06:35:55;3.53;;;1.77;;
43042;SDS011;28667;50.758;6.096;2023-04-25T06:38:24;6.93;;;2.00;;
43042;SDS011;28667;50.758;6.096;2023-04-25T06:40:51;6.18;;;1.35;;
43042;SDS011;28667;50.758;6.096;2023-04-25T06:43:18;9.55;;;1.88;;
43042;SDS011;28667;50.758;6.096;2023-04-25T06:45:55;5.45;;;1.73;;
43042;SDS011;28667;50.758;6.096;2023-04-25T06:48:24;2.60;;;1.50;;
43042;SDS011;28667;50.758;6.096;2023-04-25T06:50:51;13.98;;;1.90;;
43042;SDS011;28667;50.758;6.096;2023-04-25T06:53:17;3.33;;;1.05;;
43042;SDS011;28667;50.758;6.096;2023-04-25T06:55:47;3.70;;;1.73;;
43042;SDS011;28667;50.758;6.096;2023-04-25T06:58:18;9.55;;;1.30;;
43042;SDS011;28667;50.758;6.096;2023-04-25T07:00:50;8.77;;;1.15;;
43042;SDS011;28667;50.758;6.096;2023-04-25T07:03:17;5.85;;;1.52;;
43042;SDS011;28667;50.758;6.096;2023-04-25T07:05:43;3.30;;;1.15;;
43042;SDS011;28667;50.758;6.096;2023-04-25T07:08:11;7.97;;;1.27;;
43042;SDS011;28667;50.758;6.096;2023-04-25T07:10:37;5.90;;;1.58;;
43042;SDS011;28667;50.758;6.096;2023-04-25T07:13:03;3.90;;;1.42;;
43042;SDS011;28667;50.758;6.096;2023-04-25T07:15:29;3.92;;;1.33;;
43042;SDS011;28667;50.758;6.096;2023-04-25T07:17:56;3.65;;;0.90;;
43042;SDS011;28667;50.758;6.096;2023-04-25T07:20:22;13.18;;;1.48;;
43042;SDS011;28667;50.758;6.096;2023-04-25T07:22:47;5.93;;;1.60;;
43042;SDS011;28667;50.758;6.096;2023-04-25T07:25:15;4.15;;;1.20;;
43042;SDS011;28667;50.758;6.096;2023-04-25T07:27:41;5.05;;;1.50;;
43042;SDS011;28667;50.758;6.096;2023-04-25T07:30:12;4.45;;;1.17;;
43042;SDS011;28667;50.758;6.096;2023-04-25T07:32:38;4.38;;;1.38;;
43042;SDS011;28667;50.758;6.096;2023-04-25T07:35:04;3.70;;;1.60;;
43042;SDS011;28667;50.758;6.096;2023-04-25T07:37:32;2.33;;;1.02;;
43042;SDS011;28667;50.758;6.096;2023-04-25T07:40:11;3.10;;;1.40;;
43042;SDS011;28667;50.758;6.096;2023-04-25T07:42:42;4.78;;;1.52;;
43042;SDS011;28667;50.758;6.096;2023-04-25T07:45:09;9.65;;;1.90;;
43042;SDS011;28667;50.758;6.096;2023-04-25T07:47:36;4.65;;;1.50;;
43042;SDS011;28667;50.758;6.096;2023-04-25T07:50:03;7.35;;;1.98;;
43042;SDS011;28667;50.758;6.096;2023-04-25T07:52:30;3.88;;;1.23;;
43042;SDS011;28667;50.758;6.096;2023-04-25T07:55:05;9.75;;;1.60;;
43042;SDS011;28667;50.758;6.096;2023-04-25T07:57:51;3.63;;;1.60;;
43042;SDS011;28667;50.758;6.096;2023-04-25T08:00:18;5.22;;;1.20;;
43042;SDS011;28667;50.758;6.096;2023-04-25T08:02:51;4.30;;;1.77;;
43042;SDS011;28667;50.758;6.096;2023-04-25T08:05:17;3.97;;;0.95;;
43042;SDS011;28667;50.758;6.096;2023-04-25T08:07:49;5.13;;;1.60;;
43042;SDS011;28667;50.758;6.096;2023-04-25T08:10:15;5.95;;;1.65;;
43042;SDS011;28667;50.758;6.096;2023-04-25T08:12:42;7.70;;;1.88;;
43042;SDS011;28667;50.758;6.096;2023-04-25T08:15:09;7.28;;;1.75;;
43042;SDS011;28667;50.758;6.096;2023-04-25T08:17:39;3.45;;;1.48;;
43042;SDS011;28667;50.758;6.096;2023-04-25T08:20:05;4.22;;;1.35;;
43042;SDS011;28667;50.758;6.096;2023-04-25T08:22:33;4.47;;;2.20;;
43042;SDS011;28667;50.758;6.096;2023-04-25T08:25:16;1.88;;;1.40;;
43042;SDS011;28667;50.758;6.096;2023-04-25T08:27:42;4.22;;;1.10;;
43042;SDS011;28667;50.758;6.096;2023-04-25T08:30:09;4.40;;;1.98;;
43042;SDS011;28667;50.758;6.096;2023-04-25T08:32:49;2.90;;;1.10;;
43042;SDS011;28667;50.758;6.096;2023-04-25T08:35:29;5.57;;;1.38;;
43042;SDS011;28667;50.758;6.096;2023-04-25T08:38:08;10.90;;;1.08;;
43042;SDS011;28667;50.758;6.096;2023-04-25T08:40:38;4.20;;;1.23;;
43042;SDS011;28667;50.758;6.096;2023-04-25T08:43:19;8.70;;;1.63;;
43042;SDS011;28667;50.758;6.096;2023-04-25T08:49:01;3.83;;;1.30;;
43042;SDS011;28667;50.758;6.096;2023-04-25T08:51:29;3.80;;;0.93;;
43042;SDS011;28667;50.758;6.096;2023-04-25T08:54:08;3.97;;;1.33;;
43042;SDS011;28667;50.758;6.096;2023-04-25T08:56:36;11.07;;;1.73;;
43042;SDS011;28667;50.758;6.096;2023-04-25T08:59:04;4.80;;;0.90;;
43042;SDS011;28667;50.758;6.096;2023-04-25T09:01:36;5.85;;;1.88;;
43042;SDS011;28667;50.758;6.096;2023-04-25T09:04:02;2.90;;;0.65;;
43042;SDS011;28667;50.758;6.096;2023-04-25T09:06:29;7.40;;;1.25;;
43042;SDS011;28667;50.758;6.096;2023-04-25T09:09:05;2.63;;;1.20;;
43042;SDS011;28667;50.758;6.096;2023-04-25T09:11:33;0.95;;;0.88;;
43042;SDS011;28667;50.758;6.096;2023-04-25T09:14:16;3.67;;;1.58;;
43042;SDS011;28667;50.758;6.096;2023-04-25T09:17:11;3.47;;;1.50;;
43042;SDS011;28667;50.758;6.096;2023-04-25T09:23:11;2.88;;;0.85;;
43042;SDS011;28667;50.758;6.096;2023-04-25T09:25:42;4.47;;;1.75;;
43042;SDS011;28667;50.758;6.096;2023-04-25T09:28:36;4.55;;;1.05;;
43042;SDS011;28667;50.758;6.096;2023-04-25T09:34:11;1.42;;;0.80;;
43042;SDS011;28667;50.758;6.096;2023-04-25T09:36:51;2.50;;;0.82;;
43042;SDS011;28667;50.758;6.096;2023-04-25T09:40:03;4.85;;;0.88;;
43042;SDS011;28667;50.758;6.096;2023-04-25T09:43:01;4.07;;;0.82;;
43042;SDS011;28667;50.758;6.096;2023-04-25T09:45:30;8.48;;;1.27;;
43042;SDS011;28667;50.758;6.096;2023-04-25T09:48:10;6.38;;;1.95;;
43042;SDS011;28667;50.758;6.096;2023-04-25T09:51:12;2.55;;;1.13;;
43042;SDS011;28667;50.758;6.096;2023-04-25T09:53:49;6.28;;;0.98;;
43042;SDS011;28667;50.758;6.096;2023-04-25T09:56:48;2.35;;;1.02;;
43042;SDS011;28667;50.758;6.096;2023-04-25T09:59:21;3.15;;;0.80;;
43042;SDS011;28667;50.758;6.096;2023-04-25T10:02:33;3.45;;;0.93;;
43042;SDS011;28667;50.758;6.096;2023-04-25T10:05:22;2.90;;;0.93;;
43042;SDS011;28667;50.758;6.096;2023-04-25T10:08:07;5.15;;;1.52;;
43042;SDS011;28667;50.758;6.096;2023-04-25T10:14:35;5.97;;;1.70;;
43042;SDS011;28667;50.758;6.096;2023-04-25T10:17:05;1.95;;;1.33;;
43042;SDS011;28667;50.758;6.096;2023-04-25T10:19:44;5.55;;;1.15;;
43042;SDS011;28667;50.758;6.096;2023-04-25T10:22:23;4.78;;;1.25;;
43042;SDS011;28667;50.758;6.096;2023-04-25T10:25:12;4.05;;;1.23;;
43042;SDS011;28667;50.758;6.096;2023-04-25T10:38:47;2.15;;;1.15;;
43042;SDS011;28667;50.758;6.096;2023-04-25T10:42:36;4.28;;;1.40;;
43042;SDS011;28667;50.758;6.096;2023-04-25T10:53:14;4.32;;;1.83;;
43042;SDS011;28667;50.758;6.096;2023-04-25T11:02:11;2.72;;;1.23;;
43042;SDS011;28667;50.758;6.096;2023-04-25T11:09:11;6.95;;;1.52;;
43042;SDS011;28667;50.758;6.096;2023-04-25T11:11:48;5.70;;;1.48;;
43042;SDS011;28667;50.758;6.096;2023-04-25T11:18:18;1.77;;;1.30;;
43042;SDS011;28667;50.758;6.096;2023-04-25T11:24:02;3.05;;;1.52;;
43042;SDS011;28667;50.758;6.096;2023-04-25T11:29:59;5.10;;;1.50;;
43042;SDS011;28667;50.758;6.096;2023-04-25T11:33:05;4.72;;;1.55;;
43042;SDS011;28667;50.758;6.096;2023-04-25T11:35:37;5.95;;;1.65;;
43042;SDS011;28667;50.758;6.096;2023-04-25T11:38:46;4.85;;;1.55;;
43042;SDS011;28667;50.758;6.096;2023-04-25T11:45:14;3.67;;;1.55;;
43042;SDS011;28667;50.758;6.096;2023-04-25T11:47:53;7.80;;;1.35;;
43042;SDS011;28667;50.758;6.096;2023-04-25T11:50:41;4.45;;;1.52;;
43042;SDS011;28667;50.758;6.096;2023-04-25T11:53:22;7.45;;;1.27;;
43042;SDS011;28667;50.758;6.096;2023-04-25T11:56:14;8.30;;;1.47;;
43042;SDS011;28667;50.758;6.096;2023-04-25T11:59:05;5.90;;;0.90;;
43042;SDS011;28667;50.758;6.096;2023-04-25T12:01:51;3.40;;;1.08;;
43042;SDS011;28667;50.758;6.096;2023-04-25T12:07:44;1.42;;;0.63;;
43042;SDS011;28667;50.758;6.096;2023-04-25T12:10:36;1.75;;;1.08;;
43042;SDS011;28667;50.758;6.096;2023-04-25T12:13:55;1.38;;;0.93;;
43042;SDS011;28667;50.758;6.096;2023-04-25T12:17:03;3.30;;;0.90;;
43042;SDS011;28667;50.758;6.096;2023-04-25T12:19:51;2.80;;;0.82;;
43042;SDS011;28667;50.758;6.096;2023-04-25T12:23:11;6.93;;;1.00;;
43042;SDS011;28667;50.758;6.096;2023-04-25T12:26:05;2.40;;;0.75;;
43042;SDS011;28667;50.758;6.096;2023-04-25T12:28:36;0.70;;;0.40;;
43042;SDS011;28667;50.758;6.096;2023-04-25T12:31:27;2.58;;;0.55;;
43042;SDS011;28667;50.758;6.096;2023-04-25T12:34:16;2.67;;;0.90;;
43042;SDS011;28667;50.758;6.096;2023-04-25T12:37:40;4.50;;;0.73;;
43042;SDS011;28667;50.758;6.096;2023-04-25T12:47:15;5.68;;;1.10;;
43042;SDS011;28667;50.758;6.096;2023-04-25T12:49:50;4.60;;;0.88;;
43042;SDS011;28667;50.758;6.096;2023-04-25T12:52:26;2.83;;;0.82;;
43042;SDS011;28667;50.758;6.096;2023-04-25T12:55:15;1.63;;;0.50;;
43042;SDS011;28667;50.758;6.096;2023-04-25T12:58:07;3.17;;;1.10;;
43042;SDS011;28667;50.758;6.096;2023-04-25T13:07:56;3.78;;;0.95;;
43042;SDS011;28667;50.758;6.096;2023-04-25T13:10:30;0.82;;;0.70;;
43042;SDS011;28667;50.758;6.096;2023-04-25T13:13:31;2.42;;;1.27;;
43042;SDS011;28667;50.758;6.096;2023-04-25T13:17:09;2.25;;;0.95;;
43042;SDS011;28667;50.758;6.096;2023-04-25T13:19:58;1.67;;;0.77;;
43042;SDS011;28667;50.758;6.096;2023-04-25T13:27:58;0.88;;;0.60;;
43042;SDS011;28667;50.758;6.096;2023-04-25T13:30:49;1.52;;;0.70;;
43042;SDS011;28667;50.758;6.096;2023-04-25T13:37:04;2.35;;;0.80;;
43042;SDS011;28667;50.758;6.096;2023-04-25T13:40:10;4.78;;;0.82;;
43042;SDS011;28667;50.758;6.096;2023-04-25T13:42:36;0.57;;;0.52;;
43042;SDS011;28667;50.758;6.096;2023-04-25T13:45:03;1.20;;;0.63;;
43042;SDS011;28667;50.758;6.096;2023-04-25T13:47:29;1.08;;;0.90;;
43042;SDS011;28667;50.758;6.096;2023-04-25T13:49:55;1.83;;;1.17;;
43042;SDS011;28667;50.758;6.096;2023-04-25T13:54:50;4.75;;;1.52;;
43042;SDS011;28667;50.758;6.096;2023-04-25T13:57:17;3.55;;;1.48;;
43042;SDS011;28667;50.758;6.096;2023-04-25T13:59:43;2.15;;;1.25;;
43042;SDS011;28667;50.758;6.096;2023-04-25T14:02:09;3.25;;;0.80;;
43042;SDS011;28667;50.758;6.096;2023-04-25T14:04:35;3.70;;;0.90;;
43042;SDS011;28667;50.758;6.096;2023-04-25T14:07:01;6.05;;;1.20;;
43042;SDS011;28667;50.758;6.096;2023-04-25T14:09:28;1.33;;;0.70;;
43042;SDS011;28667;50.758;6.096;2023-04-25T14:11:54;2.05;;;1.00;;
43042;SDS011;28667;50.758;6.096;2023-04-25T14:14:21;6.43;;;1.00;;
43042;SDS011;28667;50.758;6.096;2023-04-25T14:16:48;0.60;;;0.40;;
43042;SDS011;28667;50.758;6.096;2023-04-25T14:19:15;3.03;;;0.90;;
43042;SDS011;28667;50.758;6.096;2023-04-25T14:21:42;1.35;;;0.90;;
43042;SDS011;28667;50.758;6.096;2023-04-25T14:24:10;2.97;;;0.70;;
43042;SDS011;28667;50.758;6.096;2023-04-25T14:26:36;1.30;;;0.88;;
43042;SDS011;28667;50.758;6.096;2023-04-25T14:29:05;2.08;;;0.75;;
43042;SDS011;28667;50.758;6.096;2023-04-25T14:31:34;2.72;;;1.00;;
43042;SDS011;28667;50.758;6.096;2023-04-25T14:34:01;4.60;;;1.00;;
43042;SDS011;28667;50.758;6.096;2023-04-25T14:36:30;6.03;;;1.25;;
43042;SDS011;28667;50.758;6.096;2023-04-25T14:38:57;0.80;;;0.60;;
43042;SDS011;28667;50.758;6.096;2023-04-25T14:41:23;4.53;;;0.90;;
43042;SDS011;28667;50.758;6.096;2023-04-25T14:43:50;4.50;;;0.80;;
43042;SDS011;28667;50.758;6.096;2023-04-25T14:46:15;3.17;;;1.30;;
43042;SDS011;28667;50.758;6.096;2023-04-25T14:48:41;5.45;;;0.65;;
43042;SDS011;28667;50.758;6.096;2023-04-25T14:51:07;3.83;;;1.20;;
43042;SDS011;28667;50.758;6.096;2023-04-25T14:53:33;3.70;;;1.17;;
43042;SDS011;28667;50.758;6.096;2023-04-25T14:55:59;1.83;;;1.13;;
43042;SDS011;28667;50.758;6.096;2023-04-25T14:58:25;2.55;;;0.98;;
43042;SDS011;28667;50.758;6.096;2023-04-25T15:00:50;5.65;;;0.98;;
43042;SDS011;28667;50.758;6.096;2023-04-25T15:03:16;1.38;;;0.80;;
43042;SDS011;28667;50.758;6.096;2023-04-25T15:05:43;4.40;;;0.90;;
43042;SDS011;28667;50.758;6.096;2023-04-25T15:08:09;1.75;;;0.82;;
43042;SDS011;28667;50.758;6.096;2023-04-25T15:10:35;1.30;;;0.73;;
43042;SDS011;28667;50.758;6.096;2023-04-25T15:13:01;3.58;;;0.98;;
43042;SDS011;28667;50.758;6.096;2023-04-25T15:15:28;1.95;;;1.27;;
43042;SDS011;28667;50.758;6.096;2023-04-25T15:17:53;2.65;;;1.13;;
43042;SDS011;28667;50.758;6.096;2023-04-25T15:20:20;1.23;;;0.73;;
43042;SDS011;28667;50.758;6.096;2023-04-25T15:22:46;1.17;;;0.90;;
43042;SDS011;28667;50.758;6.096;2023-04-25T15:25:15;2.92;;;1.00;;
43042;SDS011;28667;50.758;6.096;2023-04-25T15:27:44;3.45;;;1.23;;
43042;SDS011;28667;50.758;6.096;2023-04-25T15:30:13;1.88;;;1.00;;
43042;SDS011;28667;50.758;6.096;2023-04-25T15:32:40;2.15;;;1.05;;
43042;SDS011;28667;50.758;6.096;2023-04-25T15:35:07;3.22;;;1.02;;
43042;SDS011;28667;50.758;6.096;2023-04-25T15:37:33;2.10;;;0.90;;
43042;SDS011;28667;50.758;6.096;2023-04-25T15:40:07;3.85;;;0.93;;
43042;SDS011;28667;50.758;6.096;2023-04-25T15:42:38;0.95;;;0.68;;
43042;SDS011;28667;50.758;6.096;2023-04-25T15:45:06;3.03;;;0.75;;
43042;SDS011;28667;50.758;6.096;2023-04-25T15:47:33;4.50;;;1.27;;
43042;SDS011;28667;50.758;6.096;2023-04-25T15:50:00;6.72;;;1.00;;
43042;SDS011;28667;50.758;6.096;2023-04-25T15:52:26;3.35;;;0.80;;
43042;SDS011;28667;50.758;6.096;2023-04-25T15:54:52;4.28;;;1.30;;
43042;SDS011;28667;50.758;6.096;2023-04-25T15:57:18;2.45;;;0.95;;
43042;SDS011;28667;50.758;6.096;2023-04-25T15:59:45;4.10;;;0.75;;
43042;SDS011;28667;50.758;6.096;2023-04-25T16:02:12;6.35;;;0.70;;
43042;SDS011;28667;50.758;6.096;2023-04-25T16:04:39;1.05;;;0.70;;
43042;SDS011;28667;50.758;6.096;2023-04-25T16:07:05;0.93;;;0.73;;
43042;SDS011;28667;50.758;6.096;2023-04-25T16:09:31;2.42;;;0.77;;
43042;SDS011;28667;50.758;6.096;2023-04-25T16:11:57;3.40;;;1.08;;
43042;SDS011;28667;50.758;6.096;2023-04-25T16:14:23;1.73;;;1.15;;
43042;SDS011;28667;50.758;6.096;2023-04-25T16:16:49;1.92;;;0.80;;
43042;SDS011;28667;50.758;6.096;2023-04-25T16:19:15;1.45;;;0.45;;
43042;SDS011;28667;50.758;6.096;2023-04-25T16:21:41;0.98;;;0.68;;
43042;SDS011;28667;50.758;6.096;2023-04-25T16:24:08;4.40;;;1.15;;
43042;SDS011;28667;50.758;6.096;2023-04-25T16:26:34;1.48;;;0.85;;
43042;SDS011;28667;50.758;6.096;2023-04-25T16:29:03;2.28;;;0.40;;
43042;SDS011;28667;50.758;6.096;2023-04-25T16:31:30;2.05;;;0.60;;
43042;SDS011;28667;50.758;6.096;2023-04-25T16:33:56;2.95;;;0.45;;
43042;SDS011;28667;50.758;6.096;2023-04-25T16:36:22;3.05;;;0.60;;
43042;SDS011;28667;50.758;6.096;2023-04-25T16:38:48;2.97;;;0.73;;
43042;SDS011;28667;50.758;6.096;2023-04-25T16:41:13;0.57;;;0.40;;
43042;SDS011;28667;50.758;6.096;2023-04-25T16:43:39;0.30;;;0.30;;
43042;SDS011;28667;50.758;6.096;2023-04-25T16:46:05;1.25;;;0.50;;
43042;SDS011;28667;50.758;6.096;2023-04-25T16:48:31;3.08;;;0.70;;
43042;SDS011;28667;50.758;6.096;2023-04-25T16:50:57;3.30;;;1.20;;
43042;SDS011;28667;50.758;6.096;2023-04-25T16:53:23;1.13;;;0.43;;
43042;SDS011;28667;50.758;6.096;2023-04-25T16:55:49;0.82;;;0.75;;